createdAt,value
2018-08-17T00:02:13.898Z,17.90
2018-08-17T00:04:42.758Z,17.80
2018-08-17T00:07:11.020Z,17.80
2018-08-17T00:09:39.579Z,17.80
2018-08-17T00:12:07.785Z,17.70
2018-08-17T00:14:36.510Z,17.60
2018-08-17T00:17:05.141Z,17.60
2018-08-17T00:19:34.006Z,17.50
2018-08-17T00:22:03.016Z,17.50
2018-08-17T00:24:31.221Z,17.50
2018-08-17T00:27:00.560Z,17.30
2018-08-17T00:29:29.922Z,17.20
2018-08-17T00:31:58.445Z,17.30
2018-08-17T00:34:27.231Z,17.30
2018-08-17T00:36:55.570Z,17.30
2018-08-17T00:39:23.723Z,17.30
2018-08-17T00:41:52.003Z,17.30
2018-08-17T00:44:20.428Z,17.20
2018-08-17T00:46:49.221Z,17.10
2018-08-17T00:49:18.433Z,17.00
2018-08-17T00:51:46.606Z,16.90
2018-08-17T00:54:15.149Z,16.80
2018-08-17T00:56:43.710Z,16.70
2018-08-17T00:59:12.550Z,16.60
2018-08-17T01:01:41.835Z,16.50
2018-08-17T01:04:11.090Z,16.50
2018-08-17T01:06:40.031Z,16.60
2018-08-17T01:09:09.626Z,16.60
2018-08-17T01:11:38.433Z,16.60
2018-08-17T01:14:07.028Z,16.60
2018-08-17T01:16:36.063Z,16.60
2018-08-17T01:19:04.611Z,16.60
2018-08-17T01:21:33.017Z,16.60
2018-08-17T01:24:02.314Z,16.50
2018-08-17T01:26:31.481Z,16.40
2018-08-17T01:29:02.663Z,16.30
2018-08-17T01:31:31.347Z,16.30
2018-08-17T01:33:59.942Z,16.20
2018-08-17T01:36:28.233Z,16.20
2018-08-17T01:38:56.623Z,16.10
2018-08-17T01:41:25.766Z,16.00
2018-08-17T01:43:54.162Z,16.00
2018-08-17T01:46:22.903Z,16.00
2018-08-17T01:48:51.809Z,15.90
2018-08-17T01:51:21.603Z,15.80
2018-08-17T01:53:49.795Z,15.70
2018-08-17T01:56:18.345Z,15.70
2018-08-17T01:58:47.528Z,15.60
2018-08-17T02:01:16.706Z,15.70
2018-08-17T02:03:44.885Z,15.70
2018-08-17T02:06:13.508Z,15.70
2018-08-17T02:08:42.389Z,15.80
2018-08-17T02:11:10.674Z,15.70
2018-08-17T02:13:38.961Z,15.80
2018-08-17T02:16:07.349Z,15.80
2018-08-17T02:18:35.505Z,15.80
2018-08-17T02:21:03.913Z,15.80
2018-08-17T02:23:32.129Z,15.90
2018-08-17T02:26:00.257Z,15.90
2018-08-17T02:28:28.826Z,15.90
2018-08-17T02:30:57.344Z,15.70
2018-08-17T02:33:25.494Z,15.70
2018-08-17T02:35:55.461Z,15.60
2018-08-17T02:38:23.810Z,15.60
2018-08-17T02:40:53.414Z,15.70
2018-08-17T02:43:22.312Z,15.60
2018-08-17T02:45:50.483Z,15.70
2018-08-17T02:48:18.661Z,15.70
2018-08-17T02:50:46.848Z,15.70
2018-08-17T02:53:15.494Z,15.60
2018-08-17T02:55:44.633Z,15.70
2018-08-17T02:58:13.603Z,15.70
2018-08-17T03:00:41.886Z,15.70
2018-08-17T03:03:10.654Z,15.70
2018-08-17T03:05:39.017Z,15.70
2018-08-17T03:08:07.649Z,15.70
2018-08-17T03:10:36.205Z,15.70
2018-08-17T03:13:04.943Z,15.70
2018-08-17T03:15:33.538Z,15.70
2018-08-17T03:18:01.764Z,15.60
2018-08-17T03:20:30.063Z,15.60
2018-08-17T03:22:58.706Z,15.50
2018-08-17T03:25:27.493Z,15.60
2018-08-17T03:27:56.670Z,15.60
2018-08-17T03:30:25.705Z,15.50
2018-08-17T03:32:53.873Z,15.50
2018-08-17T03:35:23.277Z,15.50
2018-08-17T03:37:52.270Z,15.40
2018-08-17T03:40:21.529Z,15.40
2018-08-17T03:42:52.509Z,15.40
2018-08-17T03:45:20.796Z,15.40
2018-08-17T03:47:49.560Z,15.30
2018-08-17T03:50:18.475Z,15.10
2018-08-17T03:52:46.658Z,15.10
2018-08-17T03:55:14.856Z,15.10
2018-08-17T03:57:43.752Z,15.20
2018-08-17T04:00:12.141Z,15.20
2018-08-17T04:02:40.960Z,15.10
2018-08-17T04:05:09.934Z,15.10
2018-08-17T04:07:38.795Z,15.00
2018-08-17T04:10:07.537Z,15.00
2018-08-17T04:12:36.143Z,14.90
2018-08-17T04:15:05.313Z,14.80
2018-08-17T04:17:34.311Z,14.80
2018-08-17T04:20:02.766Z,14.80
2018-08-17T04:22:31.385Z,14.80
2018-08-17T04:25:00.094Z,14.80
2018-08-17T04:27:29.134Z,14.90
2018-08-17T04:29:58.133Z,15.00
2018-08-17T04:32:26.500Z,15.00
2018-08-17T04:34:54.741Z,15.10
2018-08-17T04:37:22.910Z,15.00
2018-08-17T04:39:51.061Z,14.90
2018-08-17T04:42:20.204Z,14.70
2018-08-17T04:44:48.661Z,14.60
2018-08-17T04:47:17.526Z,14.70
2018-08-17T04:49:46.207Z,14.90
2018-08-17T04:52:14.621Z,14.90
2018-08-17T04:54:42.853Z,15.00
2018-08-17T04:57:12.023Z,15.10
2018-08-17T04:59:41.625Z,15.20
2018-08-17T05:02:11.436Z,15.40
2018-08-17T05:04:40.077Z,15.40
2018-08-17T05:07:10.050Z,15.60
2018-08-17T05:09:38.593Z,15.80
2018-08-17T05:12:07.028Z,15.90
2018-08-17T05:14:35.313Z,15.90
2018-08-17T05:17:04.693Z,15.80
2018-08-17T05:19:33.438Z,15.90
2018-08-17T05:22:01.643Z,16.00
2018-08-17T05:24:30.108Z,16.10
2018-08-17T05:26:58.567Z,16.30
2018-08-17T05:29:27.150Z,16.70
2018-08-17T05:31:56.466Z,17.00
2018-08-17T05:34:24.870Z,17.50
2018-08-17T05:36:54.070Z,17.80
2018-08-17T05:39:22.648Z,17.60
2018-08-17T05:41:51.385Z,17.40
2018-08-17T05:44:19.509Z,17.40
2018-08-17T05:46:47.940Z,17.50
2018-08-17T05:49:16.241Z,17.60
2018-08-17T05:51:44.798Z,17.40
2018-08-17T05:54:13.073Z,17.40
2018-08-17T05:56:42.034Z,17.30
2018-08-17T05:59:10.380Z,17.70
2018-08-17T06:01:39.054Z,17.80
2018-08-17T06:04:09.095Z,18.30
2018-08-17T06:06:37.292Z,18.60
2018-08-17T06:09:07.469Z,18.50
2018-08-17T06:11:36.819Z,18.50
2018-08-17T06:14:06.285Z,18.40
2018-08-17T06:16:34.503Z,18.20
2018-08-17T06:19:04.947Z,18.20
2018-08-17T06:21:33.645Z,18.30
2018-08-17T06:24:02.042Z,18.40
2018-08-17T06:26:31.177Z,18.40
2018-08-17T06:29:00.537Z,18.30
2018-08-17T06:31:28.837Z,18.30
2018-08-17T06:33:58.300Z,18.30
2018-08-17T06:36:26.626Z,18.30
2018-08-17T06:38:55.865Z,18.30
2018-08-17T06:41:24.533Z,18.40
2018-08-17T06:43:52.661Z,18.60
2018-08-17T06:46:21.041Z,18.70
2018-08-17T06:48:49.826Z,18.70
2018-08-17T06:51:18.422Z,18.80
2018-08-17T06:53:47.022Z,19.00
2018-08-17T06:56:15.394Z,19.20
2018-08-17T06:58:45.745Z,19.30
2018-08-17T07:01:14.415Z,19.60
2018-08-17T07:03:43.250Z,19.70
2018-08-17T07:06:11.969Z,20.10
2018-08-17T07:08:40.768Z,20.30
2018-08-17T07:11:10.168Z,20.80
2018-08-17T07:13:38.391Z,20.60
2018-08-17T07:16:07.250Z,20.90
2018-08-17T07:18:35.688Z,21.30
2018-08-17T07:21:04.495Z,21.30
2018-08-17T07:23:33.174Z,21.10
2018-08-17T07:26:01.739Z,21.10
2018-08-17T07:28:30.066Z,21.00
2018-08-17T07:30:58.968Z,21.00
2018-08-17T07:33:27.194Z,20.70
2018-08-17T07:35:56.414Z,20.30
2018-08-17T07:38:25.325Z,20.20
2018-08-17T07:40:53.740Z,20.00
2018-08-17T07:43:21.863Z,19.90
2018-08-17T07:45:50.781Z,19.90
2018-08-17T07:48:21.364Z,19.90
2018-08-17T07:50:49.892Z,19.80
2018-08-17T07:53:18.246Z,19.90
2018-08-17T07:55:47.203Z,20.00
2018-08-17T07:58:16.262Z,20.20
2018-08-17T08:00:45.401Z,20.30
2018-08-17T08:03:15.176Z,20.20
2018-08-17T08:05:44.045Z,20.20
2018-08-17T08:08:12.796Z,20.60
2018-08-17T08:10:41.717Z,21.00
2018-08-17T08:13:10.382Z,21.40
2018-08-17T08:15:39.191Z,22.00
2018-08-17T08:18:08.017Z,22.90
2018-08-17T08:20:38.188Z,24.00
2018-08-17T08:23:18.033Z,23.80
2018-08-17T08:25:47.077Z,23.90
2018-08-17T08:28:15.797Z,23.80
2018-08-17T08:30:45.357Z,24.10
2018-08-17T08:33:14.262Z,25.10
2018-08-17T08:35:43.305Z,26.40
2018-08-17T08:38:13.725Z,26.90
2018-08-17T08:40:42.298Z,27.10
2018-08-17T08:43:10.874Z,26.80
2018-08-17T08:45:39.848Z,26.90
2018-08-17T08:48:08.933Z,25.80
2018-08-17T08:50:38.038Z,25.10
2018-08-17T08:53:07.635Z,24.60
2018-08-17T08:55:36.973Z,24.00
2018-08-17T08:58:06.233Z,23.80
2018-08-17T09:00:35.346Z,24.00
2018-08-17T09:03:04.050Z,23.90
2018-08-17T09:05:32.241Z,23.80
2018-08-17T09:08:01.577Z,23.70
2018-08-17T09:10:30.185Z,23.40
2018-08-17T09:12:58.358Z,23.30
2018-08-17T09:15:26.937Z,23.00
2018-08-17T09:17:55.401Z,22.80
2018-08-17T09:20:23.929Z,22.60
2018-08-17T09:22:52.814Z,22.50
2018-08-17T09:25:21.849Z,22.20
2018-08-17T09:27:50.768Z,22.20
2018-08-17T09:30:19.090Z,21.90
2018-08-17T09:33:50.841Z,21.80
2018-08-17T09:36:19.050Z,21.70
2018-08-17T09:38:48.241Z,21.40
2018-08-17T09:41:16.993Z,21.40
2018-08-17T09:43:45.611Z,21.40
2018-08-17T09:46:14.407Z,21.30
2018-08-17T09:48:42.591Z,21.10
2018-08-17T09:51:11.787Z,20.90
2018-08-17T09:53:40.121Z,20.70
2018-08-17T09:56:08.646Z,20.70
2018-08-17T09:58:38.833Z,20.70
2018-08-17T10:01:12.427Z,20.40
2018-08-17T10:03:42.593Z,20.20
2018-08-17T10:06:16.281Z,19.90
2018-08-17T10:08:50.577Z,19.80
2018-08-17T10:11:18.738Z,19.70
2018-08-17T10:13:47.766Z,19.70
2018-08-17T10:16:17.121Z,19.60
2018-08-17T10:18:45.942Z,19.50
2018-08-17T10:21:15.313Z,19.50
2018-08-17T10:23:44.653Z,19.40
2018-08-17T10:26:13.062Z,19.20
2018-08-17T10:28:42.828Z,19.10
2018-08-17T10:31:11.037Z,18.90
2018-08-17T10:33:39.378Z,18.70
2018-08-17T10:36:08.879Z,18.60
2018-08-17T10:38:37.383Z,18.50
2018-08-17T10:41:06.034Z,18.60
2018-08-17T10:43:34.872Z,18.60
2018-08-17T10:46:03.684Z,18.50
2018-08-17T10:48:32.098Z,18.50
2018-08-17T10:51:00.602Z,18.30
2018-08-17T10:53:36.071Z,18.20
2018-08-17T10:56:04.479Z,18.10
2018-08-17T10:58:33.830Z,18.10
2018-08-17T11:01:02.821Z,18.10
2018-08-17T11:03:32.052Z,17.90
2018-08-17T11:06:00.646Z,17.80
2018-08-17T11:08:29.394Z,17.80
2018-08-17T11:10:57.844Z,17.40
2018-08-17T11:13:26.273Z,17.40
2018-08-17T11:15:54.824Z,17.30
2018-08-17T11:18:23.132Z,17.10
2018-08-17T11:20:52.914Z,17.10
2018-08-17T11:23:21.385Z,17.20
2018-08-17T11:25:50.062Z,17.10
2018-08-17T11:28:18.955Z,17.00
2018-08-17T11:30:47.678Z,17.10
2018-08-17T11:33:16.670Z,17.20
2018-08-17T11:35:44.853Z,17.20
2018-08-17T11:38:17.517Z,17.40
2018-08-17T11:40:45.805Z,17.40
2018-08-17T11:43:13.993Z,17.50
2018-08-17T11:45:45.945Z,17.40
2018-08-17T11:48:21.910Z,17.30
2018-08-17T11:50:50.682Z,17.40
2018-08-17T11:53:18.904Z,17.40
2018-08-17T11:55:48.040Z,17.30
2018-08-17T11:58:17.010Z,17.20
2018-08-17T12:00:45.288Z,17.30
2018-08-17T12:03:13.558Z,17.40
2018-08-17T12:05:42.923Z,17.50
2018-08-17T12:08:12.100Z,17.50
2018-08-17T12:10:40.843Z,17.50
2018-08-17T12:13:15.330Z,17.50
2018-08-17T12:15:49.308Z,17.60
2018-08-17T12:18:18.043Z,17.60
2018-08-17T12:20:46.283Z,17.60
2018-08-17T12:23:15.551Z,17.60
2018-08-17T12:25:49.122Z,17.70
2018-08-17T12:28:17.785Z,17.80
2018-08-17T12:30:46.786Z,17.80
2018-08-17T12:33:14.961Z,17.90
2018-08-17T12:35:43.805Z,18.00
2018-08-17T12:38:15.817Z,18.20
2018-08-17T12:40:45.745Z,18.40
2018-08-17T12:43:15.957Z,18.40
2018-08-17T12:45:44.865Z,18.50
2018-08-17T12:48:14.654Z,18.60
2018-08-17T12:50:43.659Z,18.90
2018-08-17T12:53:12.648Z,19.60
2018-08-17T12:55:41.209Z,20.20
2018-08-17T12:58:09.540Z,20.10
2018-08-17T13:00:38.580Z,20.20
2018-08-17T13:03:07.405Z,20.60
2018-08-17T13:05:35.891Z,20.50
2018-08-17T13:08:04.366Z,20.90
2018-08-17T13:10:32.635Z,21.40
2018-08-17T13:13:06.693Z,21.50
2018-08-17T13:15:35.545Z,21.10
2018-08-17T13:18:14.737Z,20.70
2018-08-17T13:20:44.665Z,20.70
2018-08-17T13:23:13.042Z,20.50
2018-08-17T13:25:41.795Z,20.20
2018-08-17T13:28:11.194Z,19.90
2018-08-17T13:30:39.459Z,19.90
2018-08-17T13:33:07.674Z,20.20
2018-08-17T13:35:35.894Z,20.30
2018-08-17T13:38:04.122Z,20.60
2018-08-17T13:40:33.407Z,20.70
2018-08-17T13:43:02.421Z,20.50
2018-08-17T13:45:31.270Z,20.50
2018-08-17T13:47:59.838Z,20.50
2018-08-17T13:50:28.650Z,20.60
2018-08-17T13:52:57.407Z,20.90
2018-08-17T13:55:25.692Z,21.10
2018-08-17T13:57:53.860Z,21.20
2018-08-17T14:00:22.337Z,21.10
2018-08-17T14:02:50.647Z,20.90
2018-08-17T14:05:19.599Z,20.80
2018-08-17T14:07:48.648Z,20.50
2018-08-17T14:11:20.006Z,20.70
2018-08-17T14:13:48.278Z,20.70
2018-08-17T14:16:17.341Z,20.30
2018-08-17T14:18:45.691Z,20.10
2018-08-17T14:21:13.977Z,19.90
2018-08-17T14:23:42.444Z,19.80
2018-08-17T14:26:25.878Z,19.60
2018-08-17T14:28:54.489Z,19.50
2018-08-17T14:31:23.203Z,19.30
2018-08-17T14:33:52.726Z,19.30
2018-08-17T14:36:20.919Z,19.20
2018-08-17T14:38:49.379Z,19.10
2018-08-17T14:41:17.563Z,19.10
2018-08-17T14:43:45.810Z,19.10
2018-08-17T14:46:14.394Z,19.10
2018-08-17T14:48:42.857Z,19.10
2018-08-17T14:51:11.078Z,19.10
2018-08-17T14:53:39.692Z,19.20
2018-08-17T14:56:08.170Z,19.20
2018-08-17T14:58:37.085Z,19.20
2018-08-17T15:01:05.625Z,19.20
2018-08-17T15:03:34.659Z,19.20
2018-08-17T15:06:03.434Z,19.30
2018-08-17T15:08:31.617Z,19.20
2018-08-17T15:11:00.122Z,19.30
2018-08-17T15:13:29.144Z,19.30
2018-08-17T15:15:57.434Z,19.50
2018-08-17T15:18:26.389Z,19.70
2018-08-17T15:20:54.885Z,19.90
2018-08-17T15:23:23.113Z,20.10
2018-08-17T15:25:51.633Z,19.90
2018-08-17T15:28:20.629Z,19.80
2018-08-17T15:30:50.349Z,19.70
2018-08-17T15:33:19.705Z,19.50
2018-08-17T15:35:48.048Z,19.30
2018-08-17T15:38:16.252Z,19.10
2018-08-17T15:40:44.618Z,19.00
2018-08-17T15:43:17.081Z,19.00
2018-08-17T15:45:46.926Z,19.00
2018-08-17T15:48:15.743Z,19.10
2018-08-17T15:50:44.909Z,19.00
2018-08-17T15:53:13.106Z,19.10
2018-08-17T15:55:41.581Z,19.30
2018-08-17T15:58:10.485Z,19.40
2018-08-17T16:00:38.686Z,19.40
2018-08-17T16:03:06.853Z,19.50
2018-08-17T16:05:35.046Z,19.60
2018-08-17T16:08:03.504Z,19.70
2018-08-17T16:10:31.658Z,19.70
2018-08-17T16:13:00.546Z,19.80
2018-08-17T16:15:28.735Z,19.80
2018-08-17T16:17:57.458Z,19.90
2018-08-17T16:20:25.630Z,20.10
2018-08-17T16:22:55.305Z,20.20
2018-08-17T16:25:24.201Z,20.40
2018-08-17T16:27:52.819Z,20.40
2018-08-17T16:30:22.122Z,20.20
2018-08-17T16:32:51.258Z,19.90
2018-08-17T16:35:19.532Z,19.90
2018-08-17T16:37:48.989Z,20.00
2018-08-17T16:40:17.427Z,20.00
2018-08-17T16:42:49.730Z,19.90
2018-08-17T16:45:18.003Z,20.00
2018-08-17T16:47:47.258Z,19.90
2018-08-17T16:50:16.355Z,19.80
2018-08-17T16:52:44.619Z,19.70
2018-08-17T16:55:12.901Z,19.60
2018-08-17T16:57:41.917Z,19.50
2018-08-17T17:00:11.069Z,19.40
2018-08-17T17:02:39.613Z,19.20
2018-08-17T17:05:08.501Z,19.10
2018-08-17T17:07:36.978Z,19.00
2018-08-17T17:10:07.335Z,18.80
2018-08-17T17:12:35.822Z,18.60
2018-08-17T17:15:11.010Z,18.50
2018-08-17T17:17:39.541Z,18.30
2018-08-17T17:20:08.512Z,18.20
2018-08-17T17:22:36.677Z,18.10
2018-08-17T17:25:09.393Z,18.00
2018-08-17T17:27:38.654Z,17.90
2018-08-17T17:30:08.278Z,17.80
2018-08-17T17:32:36.495Z,17.70
2018-08-17T17:35:05.663Z,17.70
2018-08-17T17:37:33.892Z,17.60
2018-08-17T17:40:03.089Z,17.50
2018-08-17T17:42:31.318Z,17.50
2018-08-17T17:45:00.315Z,17.30
2018-08-17T17:47:28.762Z,17.30
2018-08-17T17:49:57.370Z,17.30
2018-08-17T17:52:25.792Z,17.30
2018-08-17T17:54:55.054Z,17.10
2018-08-17T17:57:23.273Z,17.00
2018-08-17T17:59:57.452Z,17.00
2018-08-17T18:02:26.426Z,16.90
2018-08-17T18:04:55.759Z,16.90
2018-08-17T18:07:28.074Z,16.80
2018-08-17T18:09:56.535Z,16.70
2018-08-17T18:12:25.217Z,16.70
2018-08-17T18:14:54.088Z,16.60
2018-08-17T18:17:22.651Z,16.60
2018-08-17T18:19:53.265Z,16.50
2018-08-17T18:22:25.872Z,16.50
2018-08-17T18:24:55.137Z,16.40
2018-08-17T18:27:23.400Z,16.30
2018-08-17T18:29:52.113Z,16.20
2018-08-17T18:32:20.262Z,16.10
2018-08-17T18:34:49.101Z,16.00
2018-08-17T18:37:17.310Z,15.90
2018-08-17T18:39:45.794Z,15.80
2018-08-17T18:42:14.889Z,15.70
2018-08-17T18:44:43.978Z,15.60
2018-08-17T18:47:12.835Z,15.60
2018-08-17T18:49:41.682Z,15.50
2018-08-17T18:52:10.121Z,15.40
2018-08-17T18:54:38.870Z,15.30
2018-08-17T18:57:07.262Z,15.20
2018-08-17T18:59:35.431Z,15.10
2018-08-17T19:02:03.726Z,15.10
2018-08-17T19:04:32.806Z,14.90
2018-08-17T19:07:01.325Z,14.90
2018-08-17T19:09:29.773Z,14.80
2018-08-17T19:11:59.121Z,14.70
2018-08-17T19:14:27.604Z,14.60
2018-08-17T19:16:56.227Z,14.60
2018-08-17T19:19:24.464Z,14.50
2018-08-17T19:21:53.105Z,14.40
2018-08-17T19:24:22.072Z,14.40
2018-08-17T19:26:50.382Z,14.30
2018-08-17T19:29:19.278Z,14.20
2018-08-17T19:31:55.748Z,14.20
2018-08-17T19:34:27.401Z,14.10
2018-08-17T19:36:56.386Z,14.10
2018-08-17T19:39:31.229Z,14.00
2018-08-17T19:42:00.441Z,14.00
2018-08-17T19:44:29.800Z,14.00
2018-08-17T19:46:58.408Z,14.00
2018-08-17T19:49:27.545Z,13.90
2018-08-17T19:51:55.684Z,13.90
2018-08-17T19:54:24.691Z,13.90
2018-08-17T19:56:53.663Z,13.90
2018-08-17T19:59:22.438Z,13.90
2018-08-17T20:01:52.045Z,13.90
2018-08-17T20:04:20.489Z,13.90
2018-08-17T20:06:49.698Z,14.00
2018-08-17T20:09:18.827Z,14.00
2018-08-17T20:11:47.149Z,14.00
2018-08-17T20:14:15.917Z,13.90
2018-08-17T20:16:45.613Z,13.90
2018-08-17T20:19:14.441Z,13.80
2018-08-17T20:21:43.364Z,13.80
2018-08-17T20:24:11.634Z,13.80
2018-08-17T20:26:40.134Z,13.70
2018-08-17T20:29:08.244Z,13.60
2018-08-17T20:31:41.606Z,13.60
2018-08-17T20:34:10.487Z,13.60
2018-08-17T20:36:39.633Z,13.60
2018-08-17T20:39:11.991Z,13.50
2018-08-17T20:41:41.009Z,13.50
2018-08-17T20:44:09.283Z,13.60
2018-08-17T20:46:37.466Z,13.60
2018-08-17T20:49:05.909Z,13.50
2018-08-17T20:51:39.134Z,13.50
2018-08-17T20:54:07.421Z,13.40
2018-08-17T20:56:36.287Z,13.30
2018-08-17T20:59:04.955Z,13.30
2018-08-17T21:01:33.289Z,13.30
2018-08-17T21:04:01.544Z,13.20
2018-08-17T21:06:29.659Z,13.30
2018-08-17T21:08:58.041Z,13.30
2018-08-17T21:11:27.378Z,13.30
2018-08-17T21:13:56.334Z,13.40
2018-08-17T21:16:25.345Z,13.40
2018-08-17T21:18:54.945Z,13.40
2018-08-17T21:21:23.818Z,13.40
2018-08-17T21:23:52.543Z,13.40
2018-08-17T21:26:20.926Z,13.30
2018-08-17T21:28:50.038Z,13.30
2018-08-17T21:31:18.910Z,13.40
2018-08-17T21:33:47.750Z,13.40
2018-08-17T21:36:17.416Z,13.30
2018-08-17T21:38:59.125Z,13.30
2018-08-17T21:41:29.739Z,13.20
2018-08-17T21:43:58.763Z,13.20
2018-08-17T21:46:26.902Z,13.30
2018-08-17T21:48:55.749Z,13.40
2018-08-17T21:51:28.213Z,13.40
2018-08-17T21:53:57.293Z,13.40
2018-08-17T21:56:26.644Z,13.30
2018-08-17T21:58:54.887Z,13.30
2018-08-17T22:01:23.405Z,13.20
2018-08-17T22:03:52.070Z,13.10
2018-08-17T22:06:21.076Z,13.00
2018-08-17T22:08:49.990Z,12.90
2018-08-17T22:11:33.631Z,12.80
2018-08-17T22:14:02.882Z,12.70
2018-08-17T22:16:30.998Z,12.60
2018-08-17T22:18:59.524Z,12.60
2018-08-17T22:21:28.286Z,12.60
2018-08-17T22:23:56.719Z,12.50
2018-08-17T22:26:25.653Z,12.50
2018-08-17T22:28:54.167Z,12.40
2018-08-17T22:31:35.307Z,12.40
2018-08-17T22:34:03.526Z,12.30
2018-08-17T22:36:32.503Z,12.30
2018-08-17T22:39:01.484Z,12.30
2018-08-17T22:41:29.803Z,12.20
2018-08-17T22:43:58.930Z,12.10
2018-08-17T22:46:27.808Z,12.20
2018-08-17T22:48:57.125Z,12.30
2018-08-17T22:51:25.748Z,12.30
2018-08-17T22:53:54.454Z,12.40
2018-08-17T22:56:22.593Z,12.40
2018-08-17T22:58:51.681Z,12.40
2018-08-17T23:01:20.798Z,12.50
2018-08-17T23:03:55.616Z,12.60
2018-08-17T23:06:25.694Z,12.60
2018-08-17T23:08:55.112Z,12.60
2018-08-17T23:11:31.893Z,12.50
2018-08-17T23:14:08.435Z,12.50
2018-08-17T23:16:36.922Z,12.50
2018-08-17T23:19:05.939Z,12.50
2018-08-17T23:21:34.374Z,12.40
2018-08-17T23:24:02.804Z,12.30
2018-08-17T23:26:31.651Z,12.30
2018-08-17T23:28:59.960Z,12.20
2018-08-17T23:31:28.863Z,12.20
2018-08-17T23:33:57.910Z,12.20
2018-08-17T23:36:26.281Z,12.10
2018-08-17T23:38:54.737Z,12.10
2018-08-17T23:41:23.671Z,12.10
2018-08-17T23:43:52.615Z,12.10
2018-08-17T23:46:20.785Z,12.10
2018-08-17T23:48:48.975Z,12.10
2018-08-17T23:51:17.339Z,12.00
2018-08-17T23:53:46.520Z,12.00
2018-08-17T23:56:15.435Z,12.00
2018-08-17T23:58:45.809Z,11.80
